HBA weather

Hobart International Airport
Hobart, Tasmania, Australia

Public forecast

Using degrees Celsius for public forecast. Weather courtesy of forecast.io.

METAR (pilot weather report)

Retrieved 2018/02/25 19:00 UTC (22 minutes ago):

YMHB 251900Z 00000KT 9999 FEW038 11/07 Q1021

TAF (pilot weather forecast)

Retrieved 2018/02/25 18:48 UTC (34 minutes ago):

TAF YMHB 251736Z 2518/2618 33007KT 9999 BKN040 FM260300 12014KT 9999 FEW045 FM260800 04010KT 9999 SCT030 FM261600 36007KT 9999 SCT030